createdAt,value
2023-02-22T00:05:13.546Z,5.30
2023-02-22T00:15:22.614Z,8.10
2023-02-22T00:25:29.996Z,8.70
2023-02-22T00:35:37.137Z,7.80
2023-02-22T00:45:44.969Z,10.00
2023-02-22T00:55:53.069Z,7.70
2023-02-22T01:06:00.176Z,8.90
2023-02-22T01:16:07.015Z,7.00
2023-02-22T01:26:14.259Z,7.70
2023-02-22T01:36:22.723Z,8.20
2023-02-22T01:46:31.733Z,8.20
2023-02-22T01:56:41.940Z,13.20
2023-02-22T02:06:49.730Z,25.20
2023-02-22T02:17:02.839Z,7.60
2023-02-22T02:27:11.730Z,6.10
2023-02-22T02:37:21.958Z,8.00
2023-02-22T02:47:33.047Z,7.60
2023-02-22T02:57:40.593Z,7.70
2023-02-22T03:07:46.967Z,7.60
2023-02-22T03:17:53.769Z,5.30
2023-02-22T03:28:01.940Z,7.00
2023-02-22T03:38:13.393Z,8.30
2023-02-22T03:48:24.705Z,9.00
2023-02-22T03:58:35.998Z,8.20
2023-02-22T04:08:44.278Z,6.10
2023-02-22T04:18:51.558Z,5.50
2023-02-22T04:28:58.806Z,9.60
2023-02-22T04:39:06.558Z,9.80
2023-02-22T04:49:13.560Z,9.10
2023-02-22T04:59:21.180Z,9.30
2023-02-22T05:09:28.557Z,7.80
2023-02-22T05:19:36.163Z,20.60
2023-02-22T05:29:43.084Z,24.90
2023-02-22T05:39:51.201Z,32.20
2023-02-22T05:49:58.351Z,48.10
2023-02-22T06:00:08.055Z,49.10
2023-02-22T06:10:15.382Z,36.80
2023-02-22T06:20:22.798Z,23.00
2023-02-22T06:30:31.886Z,12.70
2023-02-22T06:40:39.024Z,15.20
2023-02-22T06:50:46.514Z,36.00
2023-02-22T07:00:53.791Z,16.40
2023-02-22T07:11:01.012Z,12.10
2023-02-22T07:21:05.700Z,11.20
2023-02-22T07:31:12.868Z,8.90
2023-02-22T07:41:20.035Z,11.60
2023-02-22T07:51:27.747Z,16.50
2023-02-22T08:01:37.379Z,14.30
2023-02-22T08:11:44.728Z,10.10
2023-02-22T08:21:51.904Z,8.40
2023-02-22T08:31:59.270Z,5.40
2023-02-22T08:42:05.279Z,6.00
2023-02-22T08:52:10.388Z,7.80
2023-02-22T09:02:15.334Z,5.30
2023-02-22T09:12:22.552Z,7.00
2023-02-22T09:22:30.231Z,12.00
2023-02-22T09:32:39.395Z,6.50
2023-02-22T09:42:49.664Z,3.00
2023-02-22T09:52:55.379Z,2.80
2023-02-22T10:02:59.610Z,1.50
2023-02-22T10:13:06.140Z,4.90
2023-02-22T10:23:13.179Z,4.60
2023-02-22T10:33:26.856Z,3.20
2023-02-22T10:43:34.576Z,3.60
2023-02-22T10:53:41.863Z,3.70
2023-02-22T11:03:58.144Z,2.70
2023-02-22T11:14:06.912Z,3.70
2023-02-22T11:34:31.695Z,3.10
2023-02-22T11:44:36.418Z,3.40
2023-02-22T11:54:53.278Z,3.30
2023-02-22T12:05:08.470Z,2.80
2023-02-22T12:15:18.095Z,3.70
2023-02-22T12:25:26.803Z,4.90
2023-02-22T12:35:39.031Z,3.30
2023-02-22T12:45:44.436Z,3.40
2023-02-22T12:55:59.067Z,3.50
2023-02-22T13:06:12.598Z,5.20
2023-02-22T13:16:22.172Z,3.70
2023-02-22T13:26:32.535Z,4.00
2023-02-22T13:36:37.802Z,4.10
2023-02-22T13:47:08.801Z,4.40
2023-02-22T13:57:19.676Z,3.70
2023-02-22T14:07:51.805Z,4.30
2023-02-22T14:17:59.783Z,4.40
2023-02-22T14:28:07.570Z,4.30
2023-02-22T14:38:18.270Z,4.10
2023-02-22T14:48:29.069Z,4.70
2023-02-22T14:58:38.862Z,4.90
2023-02-22T15:08:47.599Z,6.30
2023-02-22T15:18:53.505Z,8.90
2023-02-22T15:29:02.311Z,7.80
2023-02-22T15:39:19.692Z,9.20
2023-02-22T15:49:29.620Z,5.70
2023-02-22T15:59:46.179Z,5.40
2023-02-22T16:09:54.456Z,5.40
2023-02-22T16:19:58.699Z,7.20
2023-02-22T16:30:15.530Z,9.00
2023-02-22T16:40:33.828Z,8.70
2023-02-22T16:50:40.938Z,8.90
2023-02-22T17:00:48.185Z,14.00
2023-02-22T17:10:57.183Z,18.40
2023-02-22T17:21:04.951Z,19.80
2023-02-22T17:31:19.041Z,20.40
2023-02-22T17:41:26.747Z,19.80
2023-02-22T17:51:33.911Z,19.60
2023-02-22T18:01:44.191Z,20.60
2023-02-22T18:11:51.485Z,16.10
2023-02-22T18:22:00.376Z,16.50
2023-02-22T18:32:08.245Z,18.50
2023-02-22T18:42:17.683Z,21.10
2023-02-22T18:52:24.977Z,21.20
2023-02-22T19:02:32.192Z,13.50
2023-02-22T19:12:39.675Z,11.30
2023-02-22T19:22:49.456Z,14.60
2023-02-22T19:43:02.347Z,17.30
2023-02-22T19:53:14.099Z,12.30
2023-02-22T20:03:22.539Z,12.60
2023-02-22T20:13:30.139Z,17.60
2023-02-22T20:23:40.338Z,19.40
2023-02-22T20:33:50.084Z,15.20
2023-02-22T20:43:58.287Z,12.60
2023-02-22T20:54:06.940Z,10.10
2023-02-22T21:04:15.308Z,13.40
2023-02-22T21:14:24.561Z,15.10
2023-02-22T21:24:31.984Z,11.70
2023-02-22T21:34:39.358Z,12.20
2023-02-22T21:44:46.584Z,15.80
2023-02-22T21:54:53.729Z,18.90
2023-02-22T22:05:00.736Z,14.70
2023-02-22T22:15:09.644Z,15.70
2023-02-22T22:25:17.355Z,19.00
2023-02-22T22:35:24.665Z,21.30
2023-02-22T22:45:32.972Z,14.90
2023-02-22T22:55:41.091Z,16.90
2023-02-22T23:05:48.643Z,16.70
2023-02-22T23:15:55.890Z,17.90
2023-02-22T23:26:04.078Z,14.70
2023-02-22T23:36:12.644Z,12.50
2023-02-22T23:46:20.256Z,13.90
2023-02-22T23:56:29.175Z,18.60
